Time;durP1;ratioP1;P1;durP2;ratioP2;P2;SDS_P1;SDS_P2;PMS_P1;PMS_P2;Temp;Humidity;BMP_temperature;BMP_pressure;BME280_temperature;BME280_humidity;BME280_pressure;Samples;Min_cycle;Max_cycle;Signal;HPM_P1;HPM_P2
2021/10/16 00:04:28;;;;;;;18.6;14.4;;;;;;;9.821685;77.20211;98916;;;;
2021/10/16 00:14:26;;;;;;;17.9;13.65;;;;;;;9.881876;76.76706;98928;;;;
2021/10/16 00:24:24;;;;;;;17.9;13.9;;;;;;;9.85222;77.07393;98938;;;;
2021/10/16 00:34:23;;;;;;;16.4;14.8;;;;;;;9.832143;76.88036;98940;;;;
2021/10/16 00:44:22;;;;;;;16;13.6;;;;;;;9.682067;77.57803;98947;;;;
2021/10/16 00:54:21;;;;;;;15;12.4;;;;;;;9.552219;77.57742;98959;;;;
2021/10/16 01:04:20;;;;;;;13.3;10.7;;;;;;;9.321685;77.69653;98951;;;;
2021/10/16 01:14:18;;;;;;;10.9;7.8;;;;;;;8.991685;78.05444;98969;;;;
2021/10/16 01:24:17;;;;;;;9.1;6.7;;;;;;;8.731953;78.71198;98969;;;;
2021/10/16 01:34:16;;;;;;;9.700001;6.85;;;;;;;8.70222;78.5725;98971;;;;
2021/10/16 01:44:15;;;;;;;9.466667;6.433333;;;;;;;8.621914;78.39932;98975;;;;
2021/10/16 01:54:13;;;;;;;11.4;5.3;;;;;;;8.442143;78.01572;98979;;;;
2021/10/16 02:04:12;;;;;;;8.8;5.3;;;;;;;8.252105;78.21684;98986;;;;
2021/10/16 02:14:15;;;;;;;8.75;5.6;;;;;;;7.842219;78.8024;98988;;;;
2021/10/16 02:24:09;;;;;;;9;7.1;;;;;;;7.461953;79.21897;98998;;;;
2021/10/16 02:34:08;;;;;;;10.9;8.55;;;;;;;7.321991;80.47443;99008;;;;
2021/10/16 02:44:06;;;;;;;12.1;10.5;;;;;;;7.4618;81.75592;99030;;;;
2021/10/16 02:54:05;;;;;;;10.7;9.6;;;;;;;7.661914;82.7224;99038;;;;
2021/10/16 03:04:03;;;;;;;14.15;10.05;;;;;;;7.801761;82.44823;99040;;;;
2021/10/16 03:14:02;;;;;;;12.6;8.7;;;;;;;7.782219;81.64831;99040;;;;
2021/10/16 03:24:01;;;;;;;11.35;8.2;;;;;;;7.741876;81.67723;99046;;;;
2021/10/16 03:33:59;;;;;;;10.56667;7.8;;;;;;;7.841684;81.33939;99056;;;;
2021/10/16 03:43:58;;;;;;;10;7.766666;;;;;;;7.882105;80.95939;99063;;;;
2021/10/16 03:53:56;;;;;;;10.23333;8.133333;;;;;;;7.841761;80.49094;99067;;;;
2021/10/16 04:03:55;;;;;;;10.1;9;;;;;;;7.81;79.52;99069;;;;
2021/10/16 04:13:54;;;;;;;10.65;9.3;;;;;;;7.722143;79.70876;99067;;;;
2021/10/16 04:23:52;;;;;;;11.6;9.566667;;;;;;;7.562105;79.66505;99073;;;;
2021/10/16 04:33:51;;;;;;;19.6;10;;;;;;;7.531761;79.70488;99079;;;;
2021/10/16 04:43:52;;;;;;;16.15;10.55;;;;;;;7.511684;80.05418;99077;;;;
2021/10/16 05:03:46;;;;;;;15.1;11.2;;;;;;;7.542143;80.37258;99087;;;;
2021/10/16 05:13:45;;;;;;;14.75;11.4;;;;;;;7.581684;80.26049;99093;;;;
2021/10/16 05:23:44;;;;;;;11.7;9.9;;;;;;;7.711915;79.85878;99120;;;;
2021/10/16 05:33:42;;;;;;;13.8;11.7;;;;;;;7.812295;79.81644;99124;;;;
2021/10/16 05:53:40;;;;;;;15.6;9.7;;;;;;;7.95222;79.70888;99142;;;;
2021/10/16 06:03:38;;;;;;;17;9;;;;;;;8.111953;79.40182;99151;;;;
2021/10/16 06:13:37;;;;;;;14.5;9.65;;;;;;;8.332067;78.59261;99161;;;;
2021/10/16 06:23:36;;;;;;;11.5;8.4;;;;;;;8.532029;78.20895;99169;;;;
2021/10/16 06:33:34;;;;;;;13.4;9.4;;;;;;;8.541876;78.56697;99183;;;;
2021/10/16 06:43:34;;;;;;;11.8;8.6;;;;;;;8.571723;78.4375;99193;;;;
2021/10/16 06:53:32;;;;;;;12.13333;8.400001;;;;;;;9.101723;77.58862;99189;;;;
2021/10/16 07:13:30;;;;;;;13.1;9.5;;;;;;;9.571685;75.42952;99204;;;;
2021/10/16 07:23:30;;;;;;;15.4;9.1;;;;;;;9.972143;74.17616;99206;;;;
2021/10/16 07:33:27;;;;;;;18.1;10.8;;;;;;;10.3818;73.267;99216;;;;
2021/10/16 07:43:26;;;;;;;18.8;11.65;;;;;;;10.47211;71.72421;99226;;;;
2021/10/16 07:53:25;;;;;;;22.7;16.4;;;;;;;10.65188;69.98019;99226;;;;
2021/10/16 08:03:24;;;;;;;13.9;10.3;;;;;;;10.90172;69.19092;99230;;;;
2021/10/16 08:13:23;;;;;;;15.2;10.5;;;;;;;10.82188;68.53588;99245;;;;
2021/10/16 08:23:22;;;;;;;15.6;9.5;;;;;;;10.91191;68.42952;99255;;;;
2021/10/16 08:33:21;;;;;;;11.8;6.9;;;;;;;11.15172;66.99274;99249;;;;
2021/10/16 08:53:19;;;;;;;10.6;7.8;;;;;;;11.95214;65.28902;99247;;;;
2021/10/16 09:03:18;;;;;;;14.1;8.7;;;;;;;12.09176;64.61203;99249;;;;
2021/10/16 09:13:18;;;;;;;10.3;8.1;;;;;;;12.25184;63.11747;99249;;;;
2021/10/16 09:23:17;;;;;;;11.9;9.6;;;;;;;12.41195;62.72379;99261;;;;
2021/10/16 09:33:16;;;;;;;17.7;10.1;;;;;;;12.12;62.603;99273;;;;
2021/10/16 09:53:15;;;;;;;11.3;7.1;;;;;;;12.65176;59.54865;99279;;;;
2021/10/16 10:03:14;;;;;;;12.9;6.8;;;;;;;12.74188;59.36398;99279;;;;
2021/10/16 10:13:13;;;;;;;11.8;6.8;;;;;;;12.66195;59.61296;99281;;;;
2021/10/16 10:23:13;;;;;;;12.3;10;;;;;;;12.31218;61.43;99275;;;;
2021/10/16 10:33:12;;;;;;;12.5;10.1;;;;;;;12.24184;61.6003;99277;;;;
2021/10/16 10:43:12;;;;;;;18.9;12.2;;;;;;;12.1518;61.68174;99263;;;;
2021/10/16 11:03:09;;;;;;;12.3;10.2;;;;;;;11.8021;64.13911;99251;;;;
2021/10/16 11:13:19;;;;;;;15.6;11.5;;;;;;;12.05195;62.18717;99249;;;;
2021/10/16 11:33:08;;;;;;;11.4;10.3;;;;;;;11.8;62.656;99238;;;;
2021/10/16 11:43:06;;;;;;;14.4;10.6;;;;;;;11.8721;61.81745;99236;;;;
2021/10/16 11:53:05;;;;;;;22.3;11.6;;;;;;;11.46176;62.46198;99234;;;;
2021/10/16 12:03:04;;;;;;;14.4;11.1;;;;;;;11.49195;62.03881;99228;;;;
2021/10/16 12:13:03;;;;;;;19.6;10.6;;;;;;;11.64211;61.87127;99214;;;;
2021/10/16 12:23:02;;;;;;;18;12.1;;;;;;;11.67184;62.60068;99214;;;;
2021/10/16 12:33:12;;;;;;;18.35;11.65;;;;;;;11.88195;60.90414;99208;;;;
2021/10/16 12:43:00;;;;;;;14;10.6;;;;;;;11.87176;60.83361;99212;;;;
2021/10/16 13:02:59;;;;;;;14.6;11;;;;;;;11.96191;59.98033;99206;;;;
2021/10/16 13:13:01;;;;;;;20.2;10;;;;;;;12.07184;59.79986;99208;;;;
2021/10/16 13:22:57;;;;;;;9.6;6.7;;;;;;;11.88184;58.78937;99208;;;;
2021/10/16 13:32:56;;;;;;;10.45;6.8;;;;;;;11.8118;59.77063;99200;;;;
2021/10/16 13:42:57;;;;;;;11.5;7.8;;;;;;;11.62226;59.74924;99195;;;;
2021/10/16 13:52:56;;;;;;;12.05;7.25;;;;;;;12.14188;59.87109;99196;;;;
2021/10/16 14:12:53;;;;;;;10.6;8;;;;;;;12.0521;59.22645;99191;;;;
2021/10/16 14:22:52;;;;;;;10.8;8.3;;;;;;;11.75172;59.58685;99196;;;;
2021/10/16 14:32:51;;;;;;;16.1;11.6;;;;;;;11.4718;59.98401;99198;;;;
2021/10/16 14:42:50;;;;;;;19.8;9.1;;;;;;;11.15168;60.7448;99202;;;;
2021/10/16 14:52:49;;;;;;;16.8;11.7;;;;;;;11.08214;62.12781;99206;;;;
2021/10/16 15:02:52;;;;;;;15.15;10.85;;;;;;;10.93176;62.34109;99204;;;;
2021/10/16 15:12:47;;;;;;;14.9;10.76667;;;;;;;10.89168;62.98356;99204;;;;
2021/10/16 15:22:46;;;;;;;21.8;12.6;;;;;;;10.7218;63.63441;99204;;;;
2021/10/16 15:42:44;;;;;;;19.3;14;;;;;;;10.44218;64.97512;99218;;;;
2021/10/16 16:02:43;;;;;;;20.2;16.3;;;;;;;10.08207;66.3518;99234;;;;
2021/10/16 16:12:41;;;;;;;30.1;20.9;;;;;;;9.901991;67.84276;99247;;;;
2021/10/16 16:22:39;;;;;;;28.6;22.2;;;;;;;9.761914;68.6545;99251;;;;
2021/10/16 16:32:38;;;;;;;27.45;20.55;;;;;;;9.661723;69.45072;99265;;;;
2021/10/16 16:42:37;;;;;;;31.8;23.9;;;;;;;9.561799;70.22308;99279;;;;
2021/10/16 16:52:36;;;;;;;32.1;25.2;;;;;;;9.54176;69.99261;99289;;;;
2021/10/16 17:02:35;;;;;;;35.23333;28.43333;;;;;;;9.551914;70.52426;99297;;;;
2021/10/16 17:12:33;;;;;;;33;27.6;;;;;;;9.471799;71.6778;99307;;;;
2021/10/16 17:22:32;;;;;;;36;30.7;;;;;;;9.401723;71.5138;99309;;;;
2021/10/16 17:32:31;;;;;;;38.9;31.1;;;;;;;9.321877;71.69672;99320;;;;
2021/10/16 17:42:30;;;;;;;40.46667;33.53334;;;;;;;9.142105;72.8373;99322;;;;
2021/10/16 17:52:28;;;;;;;40.9;34.23334;;;;;;;8.832105;72.39002;99322;;;;
2021/10/16 18:02:27;;;;;;;45.4;32.3;;;;;;;8.312181;72.67062;99330;;;;
2021/10/16 18:12:26;;;;;;;33.7;30.1;;;;;;;7.792295;74.18984;99336;;;;
2021/10/16 18:22:24;;;;;;;36.25;30.5;;;;;;;7.302219;74.66216;99336;;;;
2021/10/16 18:32:23;;;;;;;33.8;26.1;;;;;;;6.902296;74.85496;99330;;;;
2021/10/16 18:42:22;;;;;;;41.6;31;;;;;;;6.552105;75.43431;99336;;;;
2021/10/16 18:52:20;;;;;;;39.6;29.5;;;;;;;6.272219;76.14941;99334;;;;
2021/10/16 19:02:18;;;;;;;41.9;31.6;;;;;;;5.992143;76.9299;99336;;;;
2021/10/16 19:12:20;;;;;;;38.8;32.5;;;;;;;5.662105;77.50313;99340;;;;
2021/10/16 19:22:17;;;;;;;40.1;33.4;;;;;;;5.372067;78.06317;99342;;;;
2021/10/16 19:32:13;;;;;;;70.3;56.3;;;;;;;5.152143;78.51796;99342;;;;
2021/10/16 19:42:12;;;;;;;63.5;44.8;;;;;;;5.031876;79.35009;99338;;;;
2021/10/16 19:52:10;;;;;;;52.35;40;;;;;;;4.872219;79.85271;99338;;;;
2021/10/16 20:02:08;;;;;;;44.9;38.8;;;;;;;4.711761;80.50587;99336;;;;
2021/10/16 20:12:07;;;;;;;42.8;36.2;;;;;;;4.542295;80.79001;99338;;;;
2021/10/16 20:22:05;;;;;;;49.1;37.6;;;;;;;4.622143;81.28597;99336;;;;
2021/10/16 20:32:05;;;;;;;47.5;35.5;;;;;;;4.661953;80.99628;99334;;;;
2021/10/16 20:42:01;;;;;;;50.35;33.2;;;;;;;4.602181;80.94333;99328;;;;
2021/10/16 20:52:00;;;;;;;45.93333;33.16667;;;;;;;4.622219;80.8901;99326;;;;
2021/10/16 21:01:58;;;;;;;40.2;28.4;;;;;;;4.481684;80.40029;99324;;;;
2021/10/16 21:11:56;;;;;;;37.85;29;;;;;;;4.192143;80.29236;99324;;;;
2021/10/16 21:21:58;;;;;;;41.4;31.3;;;;;;;3.922257;80.23866;99324;;;;
2021/10/16 21:31:54;;;;;;;40.76667;33.2;;;;;;;3.801876;81.23864;99320;;;;
2021/10/16 21:41:51;;;;;;;40.56667;33.73333;;;;;;;3.572105;81.39522;99324;;;;
2021/10/16 21:51:52;;;;;;;38.46667;34.43333;;;;;;;3.342105;81.00409;99318;;;;
2021/10/16 22:01:46;;;;;;;56.3;48.5;;;;;;;3.251684;81.84201;99326;;;;
2021/10/16 22:11:45;;;;;;;70.4;62;;;;;;;3.221876;82.34781;99320;;;;
2021/10/16 22:21:42;;;;;;;76.3;61.5;;;;;;;3.161761;82.81329;99311;;;;
2021/10/16 22:31:41;;;;;;;75.8;62.1;;;;;;;3.121914;83.30905;99311;;;;
2021/10/16 22:41:39;;;;;;;70.10001;59.8;;;;;;;3.131838;83.19864;99307;;;;
2021/10/16 22:51:37;;;;;;;71.96667;58.4;;;;;;;3.122295;83.15439;99314;;;;
2021/10/16 23:01:35;;;;;;;66.63334;55;;;;;;;3.141914;83.49503;99312;;;;
2021/10/16 23:11:33;;;;;;;49.1;43.9;;;;;;;3.191799;83.46259;99311;;;;
2021/10/16 23:21:31;;;;;;;52.65;42.35;;;;;;;3.342067;83.8987;99309;;;;
2021/10/16 23:31:28;;;;;;;58.8;46.23333;;;;;;;3.361761;83.63297;99311;;;;
2021/10/16 23:41:26;;;;;;;63.2;49.9;;;;;;;3.342105;84.04038;99305;;;;
2021/10/16 23:51:25;;;;;;;67.8;60.9;;;;;;;3.341914;83.77544;99311;;;;
